Time;durP1;ratioP1;P1;durP2;ratioP2;P2;SDS_P1;SDS_P2;PMS_P1;PMS_P2;Temp;Humidity;BMP_temperature;BMP_pressure;BME280_temperature;BME280_humidity;BME280_pressure;Samples;Min_cycle;Max_cycle;Signal;HPM_P1;HPM_P2
2022/12/05 00:01:18;;;;;;;31.23;10.82;;;3.00;99.90;;;;;;5070720;28;20071;-61
2022/12/05 00:03:46;;;;;;;31.25;12.25;;;3.00;99.90;;;;;;5072431;28;20111;-61
2022/12/05 00:06:13;;;;;;;25.73;11.80;;;3.00;99.90;;;;;;5064295;28;20064;-60
2022/12/05 00:08:40;;;;;;;;;;;3.00;99.90;;;;;;5072643;28;20044;-61
2022/12/05 00:11:16;;;;;;;27.05;11.20;;;2.90;99.90;;;;;;5071208;28;19955;-61
2022/12/05 00:13:43;;;;;;;31.88;11.57;;;2.90;99.90;;;;;;5071760;28;20064;-60
2022/12/05 00:16:12;;;;;;;78.93;14.15;;;2.90;99.90;;;;;;5070267;28;20065;-60
2022/12/05 00:18:40;;;;;;;44.03;12.73;;;3.00;99.90;;;;;;5071103;28;20039;-61
2022/12/05 00:21:13;;;;;;;32.28;12.05;;;2.90;99.90;;;;;;5065287;28;20048;-60
2022/12/05 00:23:40;;;;;;;25.73;11.13;;;3.00;99.90;;;;;;5071709;28;20066;-61
2022/12/05 00:26:08;;;;;;;21.77;10.02;;;3.00;99.90;;;;;;5072151;28;20064;-61
2022/12/05 00:28:35;;;;;;;17.42;9.57;;;3.00;99.90;;;;;;5071375;28;20401;-61
2022/12/05 00:31:09;;;;;;;18.25;8.52;;;2.90;99.90;;;;;;5072124;28;20134;-60
2022/12/05 00:33:36;;;;;;;13.75;8.48;;;3.00;99.90;;;;;;5071655;28;20041;-61
2022/12/05 00:36:03;;;;;;;17.10;7.85;;;3.00;99.90;;;;;;5072169;28;20075;-61
2022/12/05 00:38:30;;;;;;;18.38;8.65;;;3.00;99.90;;;;;;5071257;28;20043;-61
2022/12/05 00:41:03;;;;;;;23.67;9.73;;;2.90;99.90;;;;;;5072223;28;20052;-61
2022/12/05 00:43:30;;;;;;;23.23;9.13;;;2.90;99.90;;;;;;5053916;28;21280;-61
2022/12/05 00:46:01;;;;;;;18.77;9.15;;;2.90;99.90;;;;;;5071948;28;20036;-61
2022/12/05 00:48:28;;;;;;;16.25;8.35;;;2.90;99.90;;;;;;5070721;28;20041;-61
2022/12/05 00:51:04;;;;;;;20.00;9.30;;;2.90;99.90;;;;;;5071664;28;20064;-61
2022/12/05 00:53:31;;;;;;;30.40;10.65;;;2.90;99.90;;;;;;5071121;28;20101;-60
2022/12/05 00:56:19;;;;;;;26.08;10.45;;;2.90;99.90;;;;;;5072119;28;20420;-61
2022/12/05 00:58:46;;;;;;;27.90;9.82;;;2.90;99.90;;;;;;5068393;28;20072;-61
2022/12/05 01:01:17;;;;;;;24.48;9.77;;;2.90;99.90;;;;;;5071900;28;20040;-60
2022/12/05 01:03:45;;;;;;;35.85;11.43;;;3.00;99.90;;;;;;5071269;28;20456;-61
2022/12/05 01:06:12;;;;;;;;;;;2.90;99.90;;;;;;5071276;28;20041;-60
2022/12/05 01:08:40;;;;;;;20.73;9.73;;;2.90;99.90;;;;;;5070337;28;19955;-61
2022/12/05 01:11:09;;;;;;;40.63;10.82;;;2.90;99.90;;;;;;5064806;28;20112;-61
2022/12/05 01:13:36;;;;;;;76.20;12.15;;;2.90;99.90;;;;;;5070841;28;20032;-61
2022/12/05 01:16:03;;;;;;;;;;;2.90;99.90;;;;;;5072250;28;20052;-61
2022/12/05 01:18:30;;;;;;;43.78;10.18;;;2.90;99.90;;;;;;5070302;28;20019;-60
2022/12/05 01:20:57;;;;;;;50.30;11.15;;;2.90;99.90;;;;;;5069758;28;20137;-61
2022/12/05 01:23:24;;;;;;;36.20;10.73;;;2.90;99.90;;;;;;5070992;28;20455;-61
2022/12/05 01:25:51;;;;;;;31.27;9.95;;;2.90;99.90;;;;;;5070783;28;20078;-60
2022/12/05 01:28:19;;;;;;;27.27;10.25;;;2.80;99.90;;;;;;5070162;28;20072;-61
2022/12/05 01:30:47;;;;;;;39.80;11.15;;;2.90;99.90;;;;;;5071124;28;20040;-61
2022/12/05 01:33:15;;;;;;;31.67;10.52;;;2.90;99.90;;;;;;5070890;28;20090;-61
2022/12/05 01:35:42;;;;;;;54.83;10.75;;;2.90;99.90;;;;;;5071043;28;20032;-60
2022/12/05 01:38:10;;;;;;;39.00;11.05;;;2.90;99.90;;;;;;5070686;28;20049;-60
2022/12/05 01:40:37;;;;;;;52.40;11.77;;;2.90;99.90;;;;;;5071304;28;20081;-61
2022/12/05 01:43:12;;;;;;;40.13;10.43;;;2.90;99.90;;;;;;5071293;28;20067;-61
2022/12/05 01:45:42;;;;;;;30.65;10.23;;;2.80;99.90;;;;;;5069961;28;20059;-60
2022/12/05 01:48:32;;;;;;;155.30;17.23;;;2.80;99.90;;;;;;5068950;28;20481;-60
2022/12/05 01:51:00;;;;;;;137.75;15.30;;;2.70;99.90;;;;;;5070612;28;20520;-60
2022/12/05 01:53:29;;;;;;;213.90;18.02;;;2.70;99.90;;;;;;5069886;28;20099;-60
2022/12/05 01:55:56;;;;;;;30.83;9.63;;;2.70;99.90;;;;;;5069951;28;20044;-61
2022/12/05 01:58:27;;;;;;;57.10;10.80;;;2.70;99.90;;;;;;5090184;22;20127;-60
2022/12/05 02:00:54;;;;;;;64.13;12.05;;;2.70;99.90;;;;;;5077947;28;20037;-61
2022/12/05 02:03:21;;;;;;;28.77;10.20;;;2.70;99.90;;;;;;5051879;28;20131;-60
2022/12/05 02:05:51;;;;;;;86.18;12.43;;;2.70;99.90;;;;;;5068980;28;20111;-60
2022/12/05 02:08:18;;;;;;;46.25;10.20;;;2.60;99.90;;;;;;5058664;28;20536;-60
2022/12/05 02:10:47;;;;;;;;;;;2.60;99.90;;;;;;5050100;28;20041;-60
2022/12/05 02:13:51;;;;;;;41.75;10.27;;;2.60;99.90;;;;;;5057556;28;20008;-60
2022/12/05 02:16:24;;;;;;;80.40;12.27;;;2.60;99.90;;;;;;5050363;28;20045;-60
2022/12/05 02:19:09;;;;;;;28.33;10.07;;;2.60;99.90;;;;;;5052527;28;20464;-60
2022/12/05 02:21:38;;;;;;;62.05;11.48;;;2.70;99.90;;;;;;5083122;28;20048;-60
2022/12/05 02:24:34;;;;;;;37.47;9.63;;;2.60;99.90;;;;;;5089270;28;20052;-60
2022/12/05 02:27:44;;;;;;;17.20;8.40;;;2.60;99.90;;;;;;5057173;28;20075;-60
2022/12/05 02:30:15;;;;;;;20.80;9.30;;;2.50;99.90;;;;;;4994728;28;20081;-60
2022/12/05 02:32:42;;;;;;;19.17;8.15;;;2.50;99.90;;;;;;5081676;28;20479;-60
2022/12/05 02:35:22;;;;;;;16.20;8.27;;;2.50;99.90;;;;;;5093871;28;20514;-60
2022/12/05 02:38:11;;;;;;;17.13;8.40;;;2.50;99.90;;;;;;5089933;28;20117;-60
2022/12/05 02:40:56;;;;;;;20.38;8.77;;;2.50;99.90;;;;;;5078843;28;20045;-60
2022/12/05 02:43:52;;;;;;;16.70;7.72;;;2.40;99.90;;;;;;5092847;28;20044;-60
2022/12/05 02:46:25;;;;;;;19.63;8.00;;;2.40;99.90;;;;;;5072454;28;20480;-60
2022/12/05 02:49:15;;;;;;;18.27;7.90;;;2.40;99.90;;;;;;5076717;28;20045;-60
2022/12/05 02:51:47;;;;;;;14.85;7.70;;;2.40;99.90;;;;;;5072343;28;20115;-60
2022/12/05 02:54:22;;;;;;;13.55;7.40;;;2.50;99.90;;;;;;5072628;28;20516;-60
2022/12/05 02:56:51;;;;;;;13.30;7.38;;;2.50;99.90;;;;;;5054883;28;20098;-61
2022/12/05 02:59:17;;;;;;;15.93;7.20;;;2.50;99.90;;;;;;5074647;28;20733;-60
2022/12/05 03:01:49;;;;;;;20.42;7.82;;;2.50;99.90;;;;;;5094250;28;20044;-60
2022/12/05 03:04:19;;;;;;;16.50;7.80;;;2.40;99.90;;;;;;5094698;28;20455;-61
2022/12/05 03:07:10;;;;;;;17.88;8.00;;;2.50;99.90;;;;;;5077125;28;20044;-60
2022/12/05 03:09:54;;;;;;;17.52;8.27;;;2.40;99.90;;;;;;5078628;28;20055;-61
2022/12/05 03:12:29;;;;;;;23.73;9.63;;;2.40;99.90;;;;;;5067174;28;20486;-60
2022/12/05 03:15:11;;;;;;;31.40;11.80;;;2.40;99.90;;;;;;5073262;28;20067;-60
2022/12/05 03:17:45;;;;;;;51.13;13.05;;;2.40;99.90;;;;;;5074223;28;20516;-60
2022/12/05 03:20:18;;;;;;;37.13;12.73;;;2.40;99.90;;;;;;5067081;28;20068;-60
2022/12/05 03:23:10;;;;;;;28.55;11.70;;;2.40;99.90;;;;;;5072866;28;20515;-60
2022/12/05 03:25:42;;;;;;;31.48;12.95;;;2.40;99.90;;;;;;5070667;28;20513;-60
2022/12/05 03:28:27;;;;;;;32.03;12.27;;;2.40;99.90;;;;;;5059075;28;20060;-60
2022/12/05 03:30:59;;;;;;;36.70;12.27;;;2.40;99.90;;;;;;5062350;28;20041;-60
2022/12/05 03:33:30;;;;;;;39.20;12.88;;;2.40;99.90;;;;;;5063314;28;20045;-60
2022/12/05 03:36:25;;;;;;;39.70;12.85;;;2.40;99.90;;;;;;5048194;28;20068;-60
2022/12/05 03:38:55;;;;;;;33.22;13.05;;;2.30;99.90;;;;;;5080190;28;20075;-60
2022/12/05 03:41:22;;;;;;;32.40;11.30;;;2.30;99.90;;;;;;5071847;28;20039;-60
2022/12/05 03:43:56;;;;;;;22.55;8.57;;;2.30;99.90;;;;;;5075282;28;20080;-60
2022/12/05 03:46:55;;;;;;;26.98;10.07;;;2.30;99.90;;;;;;5073808;28;20040;-60
2022/12/05 03:49:40;;;;;;;24.45;10.00;;;2.20;99.90;;;;;;5042453;28;20068;-60
2022/12/05 03:52:24;;;;;;;29.40;11.05;;;2.20;99.90;;;;;;5072756;28;20496;-60
2022/12/05 03:54:57;;;;;;;28.92;10.65;;;2.20;99.90;;;;;;5070422;28;20098;-60
2022/12/05 03:57:33;;;;;;;28.70;9.90;;;2.20;99.90;;;;;;5072300;28;20060;-59
2022/12/05 04:00:07;;;;;;;25.27;9.88;;;2.20;99.90;;;;;;5073491;28;20497;-60
2022/12/05 04:03:02;;;;;;;24.15;9.88;;;2.20;99.90;;;;;;5073016;28;20048;-60
2022/12/05 04:05:54;;;;;;;25.98;9.45;;;2.10;99.90;;;;;;5082112;28;20040;-60
2022/12/05 04:08:41;;;;;;;25.23;10.48;;;2.10;99.90;;;;;;5093518;28;20468;-60
2022/12/05 04:11:15;;;;;;;25.85;10.43;;;2.10;99.90;;;;;;5078362;28;20036;-60
2022/12/05 04:14:02;;;;;;;32.83;11.23;;;2.10;99.90;;;;;;5084381;28;20064;-60
2022/12/05 04:17:02;;;;;;;24.77;9.98;;;2.00;99.90;;;;;;5093451;28;20239;-60
2022/12/05 04:22:59;;;;;;;16.70;6.77;;;2.00;99.90;;;;;;5025742;28;20073;-59
2022/12/05 04:25:35;;;;;;;26.13;10.60;;;2.00;99.90;;;;;;5071092;28;20082;-60
2022/12/05 04:28:10;;;;;;;24.70;10.43;;;2.00;99.90;;;;;;5067538;28;20047;-60
2022/12/05 04:30:47;;;;;;;25.50;9.98;;;1.90;99.90;;;;;;5071421;28;20055;-60
2022/12/05 04:33:19;;;;;;;26.00;9.98;;;1.90;99.90;;;;;;5071819;28;20067;-60
2022/12/05 04:35:58;;;;;;;26.02;9.60;;;1.90;99.90;;;;;;5068917;28;20041;-60
2022/12/05 04:38:49;;;;;;;22.60;9.25;;;1.90;99.90;;;;;;5071435;28;20079;-60
2022/12/05 04:41:23;;;;;;;23.08;9.85;;;1.90;99.90;;;;;;5072359;28;20056;-60
2022/12/05 04:43:53;;;;;;;20.67;9.20;;;1.90;99.90;;;;;;5075126;28;20085;-60
2022/12/05 04:46:21;;;;;;;19.50;8.57;;;1.90;99.90;;;;;;5071662;28;20115;-60
2022/12/05 04:48:52;;;;;;;15.95;7.20;;;1.90;99.90;;;;;;5072281;28;20127;-60
2022/12/05 04:51:26;;;;;;;14.73;6.22;;;1.90;99.90;;;;;;5070663;28;20072;-60
2022/12/05 04:53:58;;;;;;;15.00;7.18;;;1.90;99.90;;;;;;5069901;28;20072;-60
2022/12/05 04:56:30;;;;;;;18.38;7.55;;;1.60;99.90;;;;;;5071782;28;20071;-60
2022/12/05 04:58:57;;;;;;;18.13;8.00;;;1.90;99.90;;;;;;5069476;28;20048;-59
2022/12/05 05:01:40;;;;;;;15.00;5.47;;;1.80;99.90;;;;;;5071252;28;20052;-59
2022/12/05 05:04:13;;;;;;;12.90;6.63;;;1.80;99.90;;;;;;5071676;28;20400;-60
2022/12/05 05:06:40;;;;;;;17.05;7.40;;;1.80;99.90;;;;;;5063618;28;20112;-60
2022/12/05 05:09:09;;;;;;;18.83;7.22;;;1.80;99.90;;;;;;5082720;28;20511;-60
2022/12/05 05:11:36;;;;;;;16.88;6.85;;;1.80;99.90;;;;;;5091854;28;20082;-60
2022/12/05 05:14:03;;;;;;;;;;;1.90;99.90;;;;;;5092896;28;20444;-60
2022/12/05 05:16:40;;;;;;;14.48;6.85;;;1.90;99.90;;;;;;5071138;28;20014;-60
2022/12/05 05:19:09;;;;;;;13.40;7.13;;;1.90;99.90;;;;;;5068113;28;20101;-60
2022/12/05 05:21:38;;;;;;;14.88;6.72;;;2.00;99.90;;;;;;5061411;28;20068;-60
2022/12/05 05:24:06;;;;;;;16.48;6.68;;;2.10;99.90;;;;;;5070225;28;20040;-60
2022/12/05 05:26:36;;;;;;;13.60;6.63;;;2.10;99.90;;;;;;5064310;28;20551;-60
2022/12/05 05:29:04;;;;;;;12.82;6.50;;;2.20;99.90;;;;;;5071035;28;20451;-60
2022/12/05 05:31:31;;;;;;;12.95;6.45;;;2.20;99.90;;;;;;5064165;28;20086;-60
2022/12/05 05:33:58;;;;;;;;;;;2.20;99.90;;;;;;5071179;28;20033;-60
2022/12/05 05:36:31;;;;;;;13.15;5.90;;;2.20;99.90;;;;;;5067848;28;20007;-60
2022/12/05 05:39:00;;;;;;;8.25;4.13;;;2.20;99.90;;;;;;5071500;28;20131;-60
2022/12/05 05:41:29;;;;;;;11.13;5.88;;;2.20;99.90;;;;;;5066727;28;20093;-60
2022/12/05 05:43:56;;;;;;;11.50;5.63;;;2.20;99.90;;;;;;5071166;28;20068;-60
2022/12/05 05:46:26;;;;;;;10.85;5.95;;;2.20;99.90;;;;;;5070277;28;20087;-60
2022/12/05 05:48:53;;;;;;;10.68;5.38;;;2.20;99.90;;;;;;5063849;28;20041;-59
2022/12/05 05:51:21;;;;;;;9.65;5.18;;;2.20;99.90;;;;;;5082250;28;20070;-60
2022/12/05 05:53:48;;;;;;;8.15;4.20;;;2.30;99.90;;;;;;5091541;28;20059;-59
2022/12/05 05:56:17;;;;;;;9.88;5.20;;;2.30;99.90;;;;;;5081003;28;20036;-60
2022/12/05 05:58:53;;;;;;;8.55;4.45;;;2.30;99.90;;;;;;5078407;28;20032;-60
2022/12/05 06:01:20;;;;;;;9.93;5.03;;;2.30;99.90;;;;;;5064893;28;20040;-60
2022/12/05 06:03:49;;;;;;;9.70;5.15;;;2.30;99.90;;;;;;5068704;28;20887;-59
2022/12/05 06:06:16;;;;;;;10.32;4.95;;;2.30;99.90;;;;;;5051455;28;20044;-59
2022/12/05 06:08:44;;;;;;;8.77;4.13;;;2.30;99.90;;;;;;5070608;28;20049;-60
2022/12/05 06:11:14;;;;;;;9.65;5.20;;;2.30;99.90;;;;;;5073957;28;20461;-60
2022/12/05 06:13:50;;;;;;;12.20;5.70;;;2.20;99.90;;;;;;5088037;28;20461;-59
2022/12/05 06:16:19;;;;;;;12.10;6.03;;;2.30;99.90;;;;;;5091510;28;20071;-60
2022/12/05 06:18:48;;;;;;;11.55;6.03;;;2.30;99.90;;;;;;5088862;28;20500;-59
2022/12/05 06:21:15;;;;;;;10.00;5.13;;;2.30;99.90;;;;;;5079520;28;20060;-60
2022/12/05 06:23:43;;;;;;;14.95;6.38;;;2.30;99.90;;;;;;5065034;28;20443;-60
2022/12/05 06:26:10;;;;;;;;;;;2.30;99.90;;;;;;5062850;28;20037;-60
2022/12/05 06:28:38;;;;;;;13.45;5.45;;;2.30;99.90;;;;;;5053142;28;19964;-60
2022/12/05 06:31:13;;;;;;;12.40;6.30;;;2.40;99.90;;;;;;5070978;28;20041;-60
2022/12/05 06:33:40;;;;;;;11.57;5.60;;;2.40;99.90;;;;;;5063484;28;20051;-60
2022/12/05 06:36:10;;;;;;;12.30;5.68;;;2.40;99.90;;;;;;5062491;28;20563;-60
2022/12/05 06:38:37;;;;;;;10.50;5.47;;;2.40;99.90;;;;;;5062718;28;20045;-60
2022/12/05 06:41:10;;;;;;;11.00;5.45;;;2.40;99.90;;;;;;5070406;28;20037;-60
2022/12/05 06:43:37;;;;;;;11.75;5.43;;;2.40;99.90;;;;;;5069403;28;20068;-60
2022/12/05 06:46:05;;;;;;;11.85;6.38;;;2.50;99.90;;;;;;5071013;28;20067;-60
2022/12/05 06:48:32;;;;;;;12.00;5.32;;;2.50;99.90;;;;;;5063687;28;20477;-60
2022/12/05 06:50:59;;;;;;;9.65;5.35;;;2.50;99.90;;;;;;5078363;28;20451;-60
2022/12/05 06:53:26;;;;;;;9.45;5.35;;;2.50;99.90;;;;;;5089141;28;20051;-60
2022/12/05 06:56:01;;;;;;;12.88;5.53;;;2.50;99.90;;;;;;5090850;28;20568;-60
2022/12/05 06:58:29;;;;;;;9.77;5.65;;;2.60;99.90;;;;;;5080231;28;20519;-60
2022/12/05 07:03:46;;;;;;;11.65;5.72;;;2.60;99.90;;;;;;5069756;28;20079;-60
2022/12/05 07:06:14;;;;;;;9.98;5.47;;;2.60;99.90;;;;;;5070777;28;20064;-60
2022/12/05 07:08:41;;;;;;;10.18;5.38;;;2.60;99.90;;;;;;5065488;28;20033;-60
2022/12/05 07:11:08;;;;;;;7.35;3.97;;;2.60;99.90;;;;;;5083712;28;20070;-60
2022/12/05 07:13:34;;;;;;;14.98;6.13;;;2.60;99.90;;;;;;5094206;28;20298;-60
2022/12/05 07:16:01;;;;;;;11.65;6.00;;;2.60;99.90;;;;;;5094340;28;20071;-60
2022/12/05 07:18:28;;;;;;;10.10;5.40;;;2.70;99.90;;;;;;5076140;28;20072;-60
2022/12/05 07:21:00;;;;;;;7.80;4.15;;;2.70;99.90;;;;;;5076453;28;20036;-60
2022/12/05 07:23:44;;;;;;;11.95;5.38;;;2.70;99.90;;;;;;5073767;28;20036;-60
2022/12/05 07:26:14;;;;;;;12.10;6.00;;;2.70;99.90;;;;;;5073555;28;20044;-59
2022/12/05 07:28:41;;;;;;;11.52;5.68;;;2.70;99.90;;;;;;5076741;28;20131;-60
2022/12/05 07:31:11;;;;;;;13.93;5.55;;;2.70;99.90;;;;;;5064782;28;20118;-60
2022/12/05 07:33:38;;;;;;;12.90;6.50;;;2.70;99.90;;;;;;5065862;28;20052;-60
2022/12/05 07:36:08;;;;;;;11.35;5.80;;;2.70;99.90;;;;;;5081478;28;20059;-60
2022/12/05 07:38:36;;;;;;;11.02;6.15;;;2.70;99.90;;;;;;5077591;28;20064;-60
2022/12/05 07:41:07;;;;;;;12.57;5.63;;;2.80;99.90;;;;;;5069959;28;20044;-60
2022/12/05 07:43:39;;;;;;;11.35;5.63;;;2.90;99.90;;;;;;5088652;28;20070;-60
2022/12/05 07:46:07;;;;;;;;;;;3.10;99.90;;;;;;5075917;28;20089;-60
2022/12/05 07:48:34;;;;;;;11.65;5.75;;;3.10;99.90;;;;;;5062912;28;19967;-60
2022/12/05 07:51:03;;;;;;;11.63;5.68;;;3.20;99.90;;;;;;5071965;28;20124;-60
2022/12/05 07:53:33;;;;;;;12.40;5.85;;;3.20;99.90;;;;;;5063053;28;20404;-60
2022/12/05 07:56:02;;;;;;;11.57;5.55;;;3.10;99.90;;;;;;5070547;28;20078;-60
2022/12/05 07:58:30;;;;;;;11.68;6.28;;;3.00;99.90;;;;;;5089638;22;20048;-61
2022/12/05 08:01:08;;;;;;;11.07;5.75;;;2.90;99.90;;;;;;5113931;27;20484;-61
2022/12/05 08:03:38;;;;;;;10.55;5.93;;;2.80;99.90;;;;;;5112894;28;20039;-61
2022/12/05 08:06:08;;;;;;;12.82;6.95;;;2.70;99.90;;;;;;5113583;28;20039;-61
2022/12/05 08:08:35;;;;;;;13.15;6.35;;;2.70;99.90;;;;;;5114229;28;20398;-61
2022/12/05 08:11:24;;;;;;;12.45;6.53;;;2.60;99.90;;;;;;5099431;28;20071;-61
2022/12/05 08:13:51;;;;;;;;;;;2.70;99.90;;;;;;5093615;28;20315;-60
2022/12/05 08:16:21;;;;;;;11.45;6.63;;;2.70;99.90;;;;;;5093888;28;19956;-61
2022/12/05 08:18:48;;;;;;;14.40;6.97;;;2.80;99.90;;;;;;5092763;28;20416;-61
2022/12/05 08:21:18;;;;;;;11.05;6.00;;;2.90;99.90;;;;;;5095685;28;20068;-61
2022/12/05 08:23:45;;;;;;;12.55;6.85;;;2.90;99.90;;;;;;5074220;28;20083;-60
2022/12/05 08:26:23;;;;;;;12.10;6.40;;;3.00;99.90;;;;;;5092848;28;20048;-61
2022/12/05 08:28:52;;;;;;;14.55;6.82;;;3.10;99.90;;;;;;5101520;28;20492;-60
2022/12/05 08:31:22;;;;;;;12.80;6.07;;;3.10;99.90;;;;;;5088574;28;20437;-61
2022/12/05 08:33:51;;;;;;;11.82;5.57;;;3.20;99.90;;;;;;5113217;28;20122;-60
2022/12/05 08:36:26;;;;;;;10.38;6.05;;;3.10;99.90;;;;;;5112906;28;20527;-61
2022/12/05 08:38:58;;;;;;;14.00;6.47;;;3.20;99.90;;;;;;5104371;28;20051;-61
2022/12/05 08:41:28;;;;;;;11.40;5.95;;;3.30;99.90;;;;;;5112837;28;20538;-61
2022/12/05 08:43:57;;;;;;;11.80;6.00;;;3.30;99.90;;;;;;5093605;28;20047;-61
2022/12/05 08:46:24;;;;;;;13.07;6.28;;;3.30;99.90;;;;;;5092493;28;20072;-61
2022/12/05 08:48:51;;;;;;;11.88;6.35;;;3.40;99.90;;;;;;5092194;28;20087;-60
2022/12/05 08:51:18;;;;;;;13.82;6.85;;;3.40;99.90;;;;;;5092275;28;20040;-61
2022/12/05 08:53:44;;;;;;;11.85;6.28;;;3.50;99.90;;;;;;5092232;28;20538;-61
2022/12/05 08:56:12;;;;;;;13.40;6.15;;;3.40;99.90;;;;;;5091963;28;20044;-60
2022/12/05 08:58:40;;;;;;;12.02;6.43;;;3.40;99.90;;;;;;5092747;28;20060;-60
2022/12/05 09:01:10;;;;;;;13.77;6.30;;;3.40;99.90;;;;;;5095999;28;20048;-61
2022/12/05 09:03:39;;;;;;;14.55;7.10;;;3.40;99.90;;;;;;5091875;28;20488;-61
2022/12/05 09:06:15;;;;;;;11.73;6.25;;;3.40;99.90;;;;;;5091983;28;20497;-60
2022/12/05 09:08:43;;;;;;;14.25;6.82;;;3.50;99.90;;;;;;5075576;28;20480;-61
2022/12/05 09:11:13;;;;;;;12.50;6.80;;;3.50;99.90;;;;;;5100302;28;20115;-61
2022/12/05 09:13:40;;;;;;;13.10;6.15;;;3.60;99.90;;;;;;5091986;28;20492;-61
2022/12/05 09:16:13;;;;;;;13.68;6.53;;;3.70;99.90;;;;;;5092256;28;20047;-61
2022/12/05 09:18:41;;;;;;;15.82;7.50;;;3.80;99.90;;;;;;5092572;28;20036;-60
2022/12/05 09:21:10;;;;;;;15.48;7.20;;;3.80;99.90;;;;;;5099530;28;20072;-61
2022/12/05 09:23:37;;;;;;;11.52;6.82;;;3.80;99.90;;;;;;5091270;28;20036;-60
2022/12/05 09:26:05;;;;;;;;;;;3.90;99.90;;;;;;5091925;28;20135;-61
2022/12/05 09:28:33;;;;;;;12.93;6.97;;;3.90;99.90;;;;;;5090975;28;20140;-61
2022/12/05 09:31:05;;;;;;;13.02;6.60;;;3.90;99.90;;;;;;5094485;28;20128;-61
2022/12/05 09:33:35;;;;;;;14.02;6.85;;;3.90;99.90;;;;;;5103256;28;20039;-61
2022/12/05 09:36:07;;;;;;;14.43;7.50;;;3.80;99.90;;;;;;5112322;28;20078;-60
2022/12/05 09:38:34;;;;;;;17.60;7.50;;;3.80;99.90;;;;;;5112492;28;20075;-61
2022/12/05 09:41:16;;;;;;;15.82;7.68;;;3.80;99.90;;;;;;5109624;28;20476;-60
2022/12/05 09:44:01;;;;;;;15.25;7.68;;;3.90;99.90;;;;;;5107790;28;20067;-61
2022/12/05 09:46:48;;;;;;;14.55;7.97;;;3.80;99.90;;;;;;5112304;28;20039;-61
2022/12/05 09:49:15;;;;;;;13.85;7.05;;;3.90;99.90;;;;;;5094978;28;20036;-61
2022/12/05 09:51:44;;;;;;;17.58;7.05;;;3.90;99.90;;;;;;5091119;28;20085;-61
2022/12/05 09:54:18;;;;;;;13.88;7.03;;;3.90;99.90;;;;;;5091592;28;20445;-61
2022/12/05 09:56:47;;;;;;;;;;;4.00;99.90;;;;;;5095695;28;20094;-61
2022/12/05 09:59:15;;;;;;;14.27;6.90;;;4.00;99.90;;;;;;5111096;28;20459;-61
2022/12/05 10:01:57;;;;;;;20.27;8.05;;;4.00;99.90;;;;;;5110951;28;20100;-60
2022/12/05 10:04:32;;;;;;;16.88;7.65;;;4.00;99.90;;;;;;5104984;28;20051;-61
2022/12/05 10:07:31;;;;;;;16.38;8.43;;;4.10;99.90;;;;;;5091244;28;20060;-60
2022/12/05 10:10:16;;;;;;;;;;;4.10;99.90;;;;;;5091498;28;20079;-61
2022/12/05 10:12:59;;;;;;;17.85;8.15;;;4.10;99.90;;;;;;5091219;28;19920;-61
2022/12/05 10:15:42;;;;;;;16.33;7.93;;;4.10;99.90;;;;;;5100051;28;20067;-61
2022/12/05 10:18:25;;;;;;;17.80;8.23;;;4.20;99.90;;;;;;5091348;28;20051;-61
2022/12/05 10:21:07;;;;;;;15.73;7.90;;;4.10;99.90;;;;;;5091157;28;20113;-61
2022/12/05 10:24:11;;;;;;;14.57;7.80;;;4.10;99.90;;;;;;5090453;28;20040;-61
2022/12/05 10:27:04;;;;;;;15.98;8.25;;;4.10;99.90;;;;;;5083011;28;20048;-61
2022/12/05 10:29:36;;;;;;;16.33;7.65;;;4.20;99.90;;;;;;5090851;28;20065;-61
2022/12/05 10:32:17;;;;;;;14.70;7.72;;;4.10;99.90;;;;;;5091042;28;20448;-61
2022/12/05 10:34:44;;;;;;;15.80;7.75;;;4.20;99.90;;;;;;5091102;28;20115;-60
2022/12/05 10:37:22;;;;;;;15.20;8.43;;;4.20;99.90;;;;;;5099982;28;20433;-61
2022/12/05 10:39:51;;;;;;;18.58;8.75;;;4.20;99.90;;;;;;5108337;28;20078;-61
2022/12/05 10:42:34;;;;;;;15.90;8.50;;;4.20;99.90;;;;;;5111056;28;20112;-61
2022/12/05 10:45:04;;;;;;;16.05;8.38;;;4.20;99.90;;;;;;5104075;28;20067;-60
2022/12/05 10:47:32;;;;;;;15.68;8.27;;;4.20;99.90;;;;;;5108631;28;20067;-61
2022/12/05 10:50:04;;;;;;;17.77;9.02;;;4.30;99.90;;;;;;5096227;28;20072;-61
2022/12/05 10:52:31;;;;;;;20.90;8.95;;;4.30;99.90;;;;;;5094331;28;20052;-61
2022/12/05 10:55:03;;;;;;;17.40;9.02;;;4.30;99.90;;;;;;5094728;28;20442;-61
2022/12/05 10:57:30;;;;;;;20.77;8.65;;;4.40;99.90;;;;;;5097546;28;20036;-60
2022/12/05 10:59:56;;;;;;;17.60;8.15;;;4.30;99.90;;;;;;5094332;28;20055;-60
2022/12/05 11:02:28;;;;;;;19.60;8.63;;;4.40;99.90;;;;;;5094138;28;20048;-61
2022/12/05 11:04:55;;;;;;;17.77;9.40;;;4.30;99.90;;;;;;5097306;28;20097;-61
2022/12/05 11:07:31;;;;;;;20.52;8.55;;;4.30;99.90;;;;;;5094422;28;20048;-60
2022/12/05 11:09:59;;;;;;;16.08;8.65;;;4.30;99.90;;;;;;5094150;28;20086;-61
2022/12/05 11:12:35;;;;;;;17.30;8.45;;;4.30;99.90;;;;;;5094109;28;20074;-60
2022/12/05 11:15:10;;;;;;;19.25;8.85;;;4.30;99.90;;;;;;5095556;28;20036;-60
2022/12/05 11:17:38;;;;;;;17.63;8.30;;;4.30;99.90;;;;;;5093714;28;20712;-61
2022/12/05 11:20:33;;;;;;;18.80;9.25;;;4.30;99.90;;;;;;5094445;28;20135;-61
2022/12/05 11:23:22;;;;;;;16.15;8.27;;;4.40;99.90;;;;;;5095032;27;20098;-61
2022/12/05 11:25:49;;;;;;;16.95;8.40;;;4.40;99.90;;;;;;5075604;28;20067;-61
2022/12/05 11:28:16;;;;;;;18.00;8.05;;;4.50;99.90;;;;;;5093781;28;20090;-61
2022/12/05 11:30:58;;;;;;;16.98;7.68;;;4.60;99.90;;;;;;5097165;28;20082;-61
2022/12/05 11:33:28;;;;;;;18.70;8.85;;;4.50;99.90;;;;;;5107372;28;20032;-61
2022/12/05 11:36:17;;;;;;;15.15;8.23;;;4.60;99.90;;;;;;5112972;28;20036;-61
2022/12/05 11:38:44;;;;;;;15.15;7.47;;;4.70;99.90;;;;;;5112184;28;20084;-61
2022/12/05 11:41:39;;;;;;;16.80;7.60;;;4.70;99.90;;;;;;5094957;28;20043;-60
2022/12/05 11:44:41;;;;;;;12.85;6.75;;;4.70;99.90;;;;;;5114309;28;20560;-61
2022/12/05 11:47:37;;;;;;;13.77;6.25;;;4.70;99.90;;;;;;5057252;28;20079;-61
2022/12/05 11:50:16;;;;;;;12.23;6.57;;;4.80;99.90;;;;;;5037958;28;20053;-61
2022/12/05 11:52:46;;;;;;;11.18;5.57;;;4.90;99.90;;;;;;5093413;28;20504;-60
2022/12/05 11:55:41;;;;;;;10.45;5.53;;;4.90;99.90;;;;;;5097829;28;20078;-61
2022/12/05 11:58:39;;;;;;;9.45;4.68;;;4.90;99.90;;;;;;5091984;28;20063;-61
2022/12/05 12:01:29;;;;;;;9.18;4.32;;;5.00;99.90;;;;;;5093666;28;20408;-61
2022/12/05 12:04:03;;;;;;;11.30;5.25;;;5.00;99.90;;;;;;5093420;28;20101;-60
2022/12/05 12:06:47;;;;;;;8.88;4.70;;;5.10;99.90;;;;;;5096273;28;20072;-60
2022/12/05 12:09:45;;;;;;;8.73;5.13;;;5.20;99.90;;;;;;5105731;28;20040;-61
2022/12/05 12:12:19;;;;;;;8.82;4.65;;;5.20;99.90;;;;;;5113443;28;20075;-61
2022/12/05 12:15:24;;;;;;;8.77;4.85;;;5.20;99.90;;;;;;5111852;28;20067;-61
2022/12/05 12:18:14;;;;;;;7.65;3.97;;;5.20;99.90;;;;;;5093147;28;20082;-60
2022/12/05 12:21:02;;;;;;;11.80;5.03;;;5.30;99.90;;;;;;5075044;28;20401;-60
2022/12/05 12:23:46;;;;;;;7.33;4.40;;;5.30;99.90;;;;;;5092011;28;20036;-61
2022/12/05 12:26:52;;;;;;;10.93;4.45;;;5.30;99.90;;;;;;5105203;28;20075;-61
2022/12/05 12:29:49;;;;;;;8.68;4.38;;;5.30;99.90;;;;;;5113171;28;20078;-61
2022/12/05 12:32:31;;;;;;;6.88;3.67;;;5.40;99.90;;;;;;5095301;28;20044;-61
2022/12/05 12:35:14;;;;;;;7.50;3.88;;;5.40;99.90;;;;;;5092840;28;20048;-61
2022/12/05 12:37:56;;;;;;;6.18;3.53;;;5.50;99.90;;;;;;5092716;28;20071;-61
2022/12/05 12:40:34;;;;;;;7.22;3.80;;;5.50;99.90;;;;;;5098054;28;20068;-60
2022/12/05 12:43:27;;;;;;;6.78;3.28;;;5.50;99.90;;;;;;5104203;28;20072;-60
2022/12/05 12:46:31;;;;;;;5.18;3.20;;;5.50;99.90;;;;;;5113463;28;20054;-60
2022/12/05 12:49:24;;;;;;;6.75;3.15;;;5.50;99.90;;;;;;5101437;28;20075;-60
2022/12/05 12:52:01;;;;;;;5.45;2.90;;;5.60;99.90;;;;;;5092097;28;20040;-61
2022/12/05 12:54:31;;;;;;;4.80;2.75;;;5.70;99.90;;;;;;5092519;28;20072;-61
2022/12/05 12:57:45;;;;;;;6.25;3.20;;;5.70;99.90;;;;;;5093567;28;20131;-61
2022/12/05 13:00:24;;;;;;;5.85;3.05;;;5.80;99.90;;;;;;5104580;28;20044;-62
2022/12/05 13:03:02;;;;;;;5.43;2.80;;;5.90;99.90;;;;;;5112023;28;20499;-60
2022/12/05 13:05:37;;;;;;;5.28;2.95;;;5.90;99.90;;;;;;5096904;28;20105;-61
2022/12/05 13:08:21;;;;;;;6.68;2.95;;;5.90;99.90;;;;;;5091015;28;20076;-61
2022/12/05 13:10:48;;;;;;;6.15;3.00;;;5.90;99.90;;;;;;5092028;28;20488;-61
2022/12/05 13:13:29;;;;;;;4.93;2.72;;;5.90;99.90;;;;;;5091672;28;20071;-61
2022/12/05 13:16:02;;;;;;;5.55;3.15;;;5.90;99.90;;;;;;5092064;28;20063;-61
2022/12/05 13:18:29;;;;;;;4.15;2.80;;;5.90;99.90;;;;;;5091858;28;20403;-61
2022/12/05 13:20:58;;;;;;;5.95;2.63;;;5.90;99.90;;;;;;5091748;28;20082;-61
2022/12/05 13:23:28;;;;;;;6.47;3.75;;;5.90;99.90;;;;;;5100756;28;20453;-60
2022/12/05 13:25:58;;;;;;;10.32;3.45;;;5.80;99.90;;;;;;5110038;28;20048;-61
2022/12/05 13:28:26;;;;;;;5.22;2.83;;;5.80;99.90;;;;;;5096990;28;20496;-60
2022/12/05 13:31:00;;;;;;;5.70;2.90;;;5.80;99.90;;;;;;5091827;28;20067;-61
2022/12/05 13:33:44;;;;;;;6.72;3.25;;;5.80;99.90;;;;;;5091012;28;20054;-61